createdAt,value
2019-06-20T00:01:10.820Z,22.08
2019-06-20T00:03:37.623Z,21.95
2019-06-20T00:06:04.904Z,21.87
2019-06-20T00:08:31.704Z,21.82
2019-06-20T00:10:58.623Z,21.81
2019-06-20T00:13:25.357Z,21.79
2019-06-20T00:15:52.171Z,21.74
2019-06-20T00:18:19.292Z,21.65
2019-06-20T00:20:47.036Z,21.56
2019-06-20T00:23:14.813Z,21.52
2019-06-20T00:25:42.552Z,21.51
2019-06-20T00:28:10.483Z,21.47
2019-06-20T00:30:38.176Z,21.40
2019-06-20T00:33:05.633Z,21.36
2019-06-20T00:35:32.873Z,21.38
2019-06-20T00:38:00.472Z,21.37
2019-06-20T00:40:27.944Z,21.06
2019-06-20T00:42:55.530Z,21.26
2019-06-20T00:45:23.959Z,21.21
2019-06-20T00:47:51.547Z,21.19
2019-06-20T00:50:19.364Z,21.15
2019-06-20T00:52:47.224Z,21.13
2019-06-20T00:55:14.778Z,21.10
2019-06-20T00:57:42.511Z,21.01
2019-06-20T01:00:10.269Z,20.93
2019-06-20T01:02:37.519Z,20.86
2019-06-20T01:05:05.459Z,20.84
2019-06-20T01:07:32.316Z,20.84
2019-06-20T01:09:59.832Z,20.79
2019-06-20T01:12:27.812Z,20.76
2019-06-20T01:14:55.250Z,20.73
2019-06-20T01:17:22.561Z,20.73
2019-06-20T01:19:50.598Z,20.67
2019-06-20T01:22:18.022Z,20.60
2019-06-20T01:24:45.337Z,20.52
2019-06-20T01:27:12.631Z,20.45
2019-06-20T01:29:40.616Z,20.38
2019-06-20T01:32:08.215Z,20.31
2019-06-20T01:34:35.845Z,20.24
2019-06-20T01:37:03.677Z,20.22
2019-06-20T01:39:31.835Z,20.22
2019-06-20T01:41:59.428Z,20.22
2019-06-20T01:44:27.152Z,20.21
2019-06-20T01:46:54.743Z,20.19
2019-06-20T01:49:22.345Z,20.17
2019-06-20T01:51:49.730Z,20.15
2019-06-20T01:54:17.386Z,20.13
2019-06-20T01:56:44.984Z,20.10
2019-06-20T01:59:13.073Z,20.05
2019-06-20T02:01:40.563Z,20.03
2019-06-20T02:04:08.417Z,20.03
2019-06-20T02:06:35.838Z,20.02
2019-06-20T02:09:05.893Z,20.01
2019-06-20T02:11:33.575Z,18.72
2019-06-20T02:14:07.251Z,19.98
2019-06-20T02:16:30.640Z,19.98
2019-06-20T02:18:58.434Z,19.99
2019-06-20T02:21:26.450Z,20.00
2019-06-20T02:23:53.943Z,20.00
2019-06-20T02:26:20.752Z,20.02
2019-06-20T02:28:47.509Z,20.06
2019-06-20T02:31:14.577Z,20.09
2019-06-20T02:33:41.985Z,20.09
2019-06-20T02:36:09.404Z,20.10
2019-06-20T02:38:37.405Z,20.10
2019-06-20T02:41:04.273Z,20.11
2019-06-20T02:43:31.603Z,20.11
2019-06-20T02:45:59.300Z,20.11
2019-06-20T02:48:26.997Z,20.11
2019-06-20T02:50:54.561Z,20.10
2019-06-20T02:53:22.257Z,20.10
2019-06-20T02:55:49.771Z,20.09
2019-06-20T02:58:17.923Z,20.06
2019-06-20T03:00:51.931Z,20.07
2019-06-20T03:03:19.057Z,20.07
2019-06-20T03:05:46.557Z,20.07
2019-06-20T03:08:14.472Z,20.07
2019-06-20T03:10:41.995Z,20.06
2019-06-20T03:13:09.707Z,18.67
2019-06-20T03:15:37.045Z,20.02
2019-06-20T03:18:04.318Z,20.00
2019-06-20T03:20:32.122Z,20.01
2019-06-20T03:22:59.052Z,19.99
2019-06-20T03:25:27.052Z,19.94
2019-06-20T03:27:54.302Z,19.90
2019-06-20T03:30:21.161Z,19.82
2019-06-20T03:32:49.242Z,19.73
2019-06-20T03:35:16.918Z,19.66
2019-06-20T03:37:44.382Z,19.63
2019-06-20T03:40:11.630Z,19.62
2019-06-20T03:42:39.916Z,19.60
2019-06-20T03:45:07.688Z,19.57
2019-06-20T03:47:35.344Z,19.46
2019-06-20T03:50:04.236Z,19.37
2019-06-20T03:52:31.533Z,19.24
2019-06-20T03:54:59.643Z,19.22
2019-06-20T03:57:26.900Z,19.17
2019-06-20T03:59:53.752Z,19.14
2019-06-20T04:02:21.337Z,19.07
2019-06-20T04:04:48.972Z,19.06
2019-06-20T04:07:16.602Z,19.07
2019-06-20T04:09:44.128Z,19.09
2019-06-20T04:12:11.971Z,19.10
2019-06-20T04:14:39.874Z,19.11
2019-06-20T04:17:07.315Z,19.12
2019-06-20T04:19:35.418Z,18.86
2019-06-20T04:22:02.663Z,19.15
2019-06-20T04:24:30.354Z,19.16
2019-06-20T04:26:57.062Z,19.15
2019-06-20T04:29:24.081Z,19.12
2019-06-20T04:31:51.509Z,19.16
2019-06-20T04:34:18.843Z,19.17
2019-06-20T04:36:48.142Z,19.20
2019-06-20T04:39:19.630Z,19.24
2019-06-20T04:41:45.706Z,19.29
2019-06-20T04:44:13.555Z,19.35
2019-06-20T04:46:45.777Z,19.38
2019-06-20T04:49:13.285Z,19.43
2019-06-20T04:51:40.865Z,19.48
2019-06-20T04:54:08.819Z,19.52
2019-06-20T04:56:36.202Z,19.55
2019-06-20T04:59:03.965Z,19.59
2019-06-20T05:01:31.644Z,19.64
2019-06-20T05:03:59.449Z,19.67
2019-06-20T05:06:26.068Z,19.71
2019-06-20T05:08:53.404Z,19.79
2019-06-20T05:11:21.190Z,19.85
2019-06-20T05:13:48.233Z,19.91
2019-06-20T05:16:15.211Z,19.93
2019-06-20T05:18:41.996Z,19.91
2019-06-20T05:21:08.935Z,18.64
2019-06-20T05:23:36.909Z,19.86
2019-06-20T05:26:04.447Z,19.82
2019-06-20T05:28:32.121Z,19.82
2019-06-20T05:30:59.033Z,19.83
2019-06-20T05:33:25.894Z,19.88
2019-06-20T05:35:53.363Z,19.91
2019-06-20T05:38:21.204Z,19.94
2019-06-20T05:40:48.517Z,19.98
2019-06-20T05:43:15.897Z,20.05
2019-06-20T05:45:47.595Z,20.11
2019-06-20T05:48:13.275Z,20.16
2019-06-20T05:50:40.684Z,20.21
2019-06-20T05:53:09.034Z,20.28
2019-06-20T05:55:36.749Z,20.33
2019-06-20T05:58:04.263Z,19.50
2019-06-20T06:00:32.011Z,20.44
2019-06-20T06:02:59.449Z,20.42
2019-06-20T06:05:27.519Z,20.42
2019-06-20T06:07:55.024Z,20.41
2019-06-20T06:10:23.273Z,20.39
2019-06-20T06:12:50.235Z,20.42
2019-06-20T06:15:17.370Z,20.41
2019-06-20T06:17:44.210Z,20.38
2019-06-20T06:20:11.239Z,20.38
2019-06-20T06:22:39.852Z,20.37
2019-06-20T06:25:07.186Z,20.41
2019-06-20T06:27:34.751Z,20.45
2019-06-20T06:30:03.402Z,20.52
2019-06-20T06:32:40.077Z,20.61
2019-06-20T06:35:00.260Z,20.70
2019-06-20T06:37:27.943Z,19.48
2019-06-20T06:39:55.500Z,20.86
2019-06-20T06:42:22.348Z,20.93
2019-06-20T06:44:50.214Z,20.97
2019-06-20T06:47:18.318Z,21.01
2019-06-20T06:49:45.957Z,21.05
2019-06-20T06:52:13.509Z,21.11
2019-06-20T06:54:40.549Z,19.05
2019-06-20T06:57:08.086Z,21.18
2019-06-20T06:59:35.497Z,21.25
2019-06-20T07:02:03.213Z,21.36
2019-06-20T07:04:31.239Z,21.52
2019-06-20T07:06:58.805Z,20.44
2019-06-20T07:09:25.944Z,21.84
2019-06-20T07:11:53.716Z,22.01
2019-06-20T07:14:21.518Z,22.11
2019-06-20T07:16:59.920Z,22.25
2019-06-20T07:19:17.945Z,22.47
2019-06-20T07:21:45.823Z,22.69
2019-06-20T07:24:13.914Z,22.98
2019-06-20T07:26:41.494Z,23.36
2019-06-20T07:29:08.238Z,23.68
2019-06-20T07:31:35.257Z,24.09
2019-06-20T07:34:03.066Z,24.40
2019-06-20T07:36:30.637Z,24.57
2019-06-20T07:38:58.337Z,24.63
2019-06-20T07:41:25.658Z,24.63
2019-06-20T07:43:53.111Z,24.64
2019-06-20T07:46:20.019Z,24.75
2019-06-20T07:48:47.834Z,24.94
2019-06-20T07:51:15.150Z,24.95
2019-06-20T07:53:41.993Z,25.05
2019-06-20T07:56:09.620Z,25.34
2019-06-20T07:58:37.368Z,25.53
2019-06-20T08:01:04.822Z,25.67
2019-06-20T08:03:32.247Z,25.78
2019-06-20T08:06:00.227Z,25.77
2019-06-20T08:08:27.857Z,24.44
2019-06-20T08:10:55.432Z,25.37
2019-06-20T08:13:22.976Z,25.04
2019-06-20T08:15:50.695Z,24.79
2019-06-20T08:18:18.600Z,24.67
2019-06-20T08:20:46.507Z,24.66
2019-06-20T08:23:14.104Z,24.62
2019-06-20T08:25:42.006Z,24.48
2019-06-20T08:28:08.948Z,24.48
2019-06-20T08:30:36.844Z,24.46
2019-06-20T08:33:11.247Z,24.46
2019-06-20T08:35:33.808Z,24.52
2019-06-20T08:38:03.472Z,24.63
2019-06-20T08:40:33.102Z,24.81
2019-06-20T08:43:02.026Z,24.93
2019-06-20T08:45:31.399Z,25.03
2019-06-20T08:48:00.076Z,25.08
2019-06-20T08:50:27.836Z,25.15
2019-06-20T08:52:57.597Z,25.15
2019-06-20T08:55:25.302Z,25.25
2019-06-20T08:57:55.707Z,25.47
2019-06-20T09:00:23.026Z,24.53
2019-06-20T09:02:50.424Z,25.85
2019-06-20T09:05:17.677Z,26.11
2019-06-20T09:07:44.942Z,26.35
2019-06-20T09:10:12.822Z,26.53
2019-06-20T09:12:40.611Z,26.71
2019-06-20T09:15:08.411Z,26.17
2019-06-20T09:17:36.072Z,26.81
2019-06-20T09:20:05.114Z,26.84
2019-06-20T09:22:33.297Z,26.91
2019-06-20T09:25:01.000Z,27.05
2019-06-20T09:27:28.469Z,27.15
2019-06-20T09:29:56.240Z,27.30
2019-06-20T09:32:23.455Z,27.40
2019-06-20T09:34:52.996Z,27.32
2019-06-20T09:37:20.976Z,27.07
2019-06-20T09:39:48.836Z,26.75
2019-06-20T09:42:16.093Z,26.72
2019-06-20T09:44:43.683Z,26.87
2019-06-20T09:47:11.893Z,27.28
2019-06-20T09:49:38.847Z,27.84
2019-06-20T09:52:06.463Z,28.58
2019-06-20T09:54:34.031Z,29.07
2019-06-20T09:57:01.278Z,29.79
2019-06-20T09:59:28.162Z,30.34
2019-06-20T10:01:56.381Z,30.85
2019-06-20T10:04:23.756Z,30.90
2019-06-20T10:06:52.304Z,30.38
2019-06-20T10:09:19.239Z,30.13
2019-06-20T10:11:47.925Z,29.94
2019-06-20T10:14:15.250Z,29.83
2019-06-20T10:16:47.511Z,29.43
2019-06-20T10:19:13.373Z,29.15
2019-06-20T10:21:40.226Z,27.92
2019-06-20T10:24:07.616Z,28.73
2019-06-20T10:26:37.638Z,28.61
2019-06-20T10:29:04.247Z,28.35
2019-06-20T10:31:31.305Z,28.35
2019-06-20T10:33:58.893Z,28.29
2019-06-20T10:36:26.138Z,28.37
2019-06-20T10:38:53.406Z,28.53
2019-06-20T10:41:20.258Z,28.67
2019-06-20T10:43:47.938Z,28.83
2019-06-20T10:46:14.967Z,29.14
2019-06-20T10:48:44.210Z,29.28
2019-06-20T10:51:29.773Z,28.99
2019-06-20T10:53:57.038Z,28.92
2019-06-20T10:56:24.256Z,28.01
2019-06-20T10:58:51.479Z,29.29
2019-06-20T11:01:18.320Z,29.41
2019-06-20T11:03:46.106Z,29.83
2019-06-20T11:06:12.962Z,30.24
2019-06-20T11:08:40.635Z,30.49
2019-06-20T11:11:08.982Z,30.40
2019-06-20T11:13:35.997Z,30.51
2019-06-20T11:16:03.673Z,30.83
2019-06-20T11:18:30.885Z,29.70
2019-06-20T11:20:58.039Z,30.39
2019-06-20T11:23:24.787Z,30.25
2019-06-20T11:25:51.618Z,29.05
2019-06-20T11:28:19.956Z,29.88
2019-06-20T11:30:58.072Z,29.80
2019-06-20T11:33:15.670Z,29.79
2019-06-20T11:35:43.457Z,29.74
2019-06-20T11:38:10.482Z,29.80
2019-06-20T11:40:38.265Z,29.87
2019-06-20T11:43:06.570Z,30.08
2019-06-20T11:45:37.343Z,30.09
2019-06-20T11:48:05.731Z,30.22
2019-06-20T11:50:34.381Z,30.17
2019-06-20T11:53:01.634Z,30.05
2019-06-20T11:55:29.314Z,30.13
2019-06-20T11:57:56.252Z,30.50
2019-06-20T12:00:23.393Z,30.92
2019-06-20T12:02:50.398Z,31.13
2019-06-20T12:05:17.640Z,29.82
2019-06-20T12:07:45.605Z,31.07
2019-06-20T12:10:13.026Z,31.15
2019-06-20T12:12:41.007Z,31.28
2019-06-20T12:15:08.856Z,31.13
2019-06-20T12:17:35.836Z,31.21
2019-06-20T12:20:05.421Z,31.44
2019-06-20T12:22:32.259Z,31.38
2019-06-20T12:24:59.096Z,31.38
2019-06-20T12:27:25.836Z,30.47
2019-06-20T12:29:53.185Z,31.50
2019-06-20T12:32:21.286Z,31.44
2019-06-20T12:34:49.091Z,31.36
2019-06-20T12:37:16.378Z,31.52
2019-06-20T12:39:44.432Z,31.54
2019-06-20T12:42:11.925Z,31.58
2019-06-20T12:44:40.092Z,31.70
2019-06-20T12:47:07.682Z,31.79
2019-06-20T12:49:34.777Z,31.78
2019-06-20T12:52:02.133Z,31.93
2019-06-20T12:54:30.304Z,32.10
2019-06-20T12:56:57.348Z,32.21
2019-06-20T12:59:24.072Z,32.18
2019-06-20T13:01:51.242Z,32.09
2019-06-20T13:04:18.381Z,32.05
2019-06-20T13:06:45.199Z,32.20
2019-06-20T13:09:12.260Z,31.90
2019-06-20T13:11:40.661Z,31.61
2019-06-20T13:14:07.534Z,31.48
2019-06-20T13:16:34.617Z,31.16
2019-06-20T13:19:01.304Z,29.97
2019-06-20T13:21:28.312Z,31.00
2019-06-20T13:23:55.026Z,31.38
2019-06-20T13:26:23.016Z,31.67
2019-06-20T13:29:03.520Z,32.00
2019-06-20T13:31:18.609Z,31.78
2019-06-20T13:33:46.829Z,30.55
2019-06-20T13:36:13.983Z,30.73
2019-06-20T13:38:41.553Z,30.59
2019-06-20T13:41:10.058Z,30.41
2019-06-20T13:43:36.858Z,30.26
2019-06-20T13:46:11.863Z,28.42
2019-06-20T13:48:40.321Z,30.54
2019-06-20T13:51:08.072Z,29.96
2019-06-20T13:53:35.022Z,31.25
2019-06-20T13:56:01.957Z,31.19
2019-06-20T13:58:30.094Z,30.92
2019-06-20T14:00:57.027Z,30.75
2019-06-20T14:03:24.142Z,31.03
2019-06-20T14:05:51.719Z,31.45
2019-06-20T14:08:18.940Z,31.75
2019-06-20T14:10:46.032Z,31.81
2019-06-20T14:13:19.131Z,31.20
2019-06-20T14:15:44.474Z,30.61
2019-06-20T14:18:12.828Z,30.33
2019-06-20T14:20:39.654Z,30.01
2019-06-20T14:23:06.889Z,29.75
2019-06-20T14:25:34.347Z,29.53
2019-06-20T14:28:01.976Z,29.48
2019-06-20T14:30:29.855Z,29.38
2019-06-20T14:32:57.628Z,29.48
2019-06-20T14:35:25.534Z,29.37
2019-06-20T14:37:59.365Z,29.32
2019-06-20T14:40:27.227Z,29.08
2019-06-20T14:42:54.398Z,28.97
2019-06-20T14:45:21.529Z,28.96
2019-06-20T14:47:48.579Z,28.94
2019-06-20T14:50:17.688Z,28.87
2019-06-20T14:52:46.098Z,28.84
2019-06-20T14:55:13.368Z,28.78
2019-06-20T14:57:40.433Z,28.69
2019-06-20T15:00:08.206Z,28.66
2019-06-20T15:02:38.719Z,28.60
2019-06-20T15:05:06.539Z,28.49
2019-06-20T15:07:33.679Z,28.54
2019-06-20T15:10:00.520Z,28.70
2019-06-20T15:12:27.338Z,28.90
2019-06-20T15:14:55.524Z,29.06
2019-06-20T15:17:22.873Z,29.09
2019-06-20T15:19:49.756Z,29.22
2019-06-20T15:22:16.948Z,29.49
2019-06-20T15:24:45.083Z,29.80
2019-06-20T15:27:12.428Z,29.98
2019-06-20T15:29:39.714Z,30.29
2019-06-20T15:32:06.454Z,30.41
2019-06-20T15:34:33.324Z,30.59
2019-06-20T15:37:00.524Z,30.54
2019-06-20T15:39:27.374Z,30.44
2019-06-20T15:41:54.353Z,30.32
2019-06-20T15:44:22.400Z,30.05
2019-06-20T15:46:50.072Z,29.80
2019-06-20T15:49:17.099Z,29.63
2019-06-20T15:51:44.023Z,28.43
2019-06-20T15:54:11.287Z,29.20
2019-06-20T15:56:38.162Z,28.99
2019-06-20T15:59:05.320Z,28.85
2019-06-20T16:01:32.063Z,28.71
2019-06-20T16:03:58.880Z,28.65
2019-06-20T16:06:25.755Z,28.58
2019-06-20T16:08:53.267Z,28.43
2019-06-20T16:11:20.099Z,28.35
2019-06-20T16:13:50.073Z,28.38
2019-06-20T16:16:15.489Z,28.45
2019-06-20T16:18:42.721Z,28.50
2019-06-20T16:21:09.367Z,28.60
2019-06-20T16:23:36.412Z,28.64
2019-06-20T16:26:03.482Z,28.66
2019-06-20T16:28:30.897Z,28.72
2019-06-20T16:31:08.280Z,28.81
2019-06-20T16:33:27.483Z,28.99
2019-06-20T16:35:54.320Z,29.12
2019-06-20T16:40:57.630Z,28.95
2019-06-20T16:43:24.484Z,27.73
2019-06-20T16:45:51.353Z,28.56
2019-06-20T16:48:18.431Z,28.34
2019-06-20T16:50:45.564Z,28.02
2019-06-20T16:53:12.200Z,27.77
2019-06-20T16:55:38.958Z,27.31
2019-06-20T16:58:06.870Z,27.13
2019-06-20T17:00:33.837Z,26.93
2019-06-20T17:03:00.909Z,26.90
2019-06-20T17:05:28.198Z,26.79
2019-06-20T17:07:55.883Z,26.67
2019-06-20T17:10:23.406Z,26.54
2019-06-20T17:12:50.334Z,26.43
2019-06-20T17:15:17.470Z,26.26
2019-06-20T17:17:44.369Z,26.16
2019-06-20T17:20:12.828Z,26.04
2019-06-20T17:22:41.914Z,26.03
2019-06-20T17:25:10.253Z,26.09
2019-06-20T17:27:37.548Z,26.17
2019-06-20T17:30:15.730Z,26.21
2019-06-20T17:32:42.554Z,26.29
2019-06-20T17:35:10.363Z,26.18
2019-06-20T17:37:37.829Z,26.12
2019-06-20T17:40:08.080Z,25.99
2019-06-20T17:42:34.961Z,25.78
2019-06-20T17:45:03.077Z,25.49
2019-06-20T17:47:30.783Z,25.16
2019-06-20T17:49:58.822Z,24.69
2019-06-20T17:52:25.620Z,24.15
2019-06-20T17:54:53.780Z,23.56
2019-06-20T17:57:21.238Z,23.28
2019-06-20T17:59:48.824Z,23.20
2019-06-20T18:02:15.543Z,23.14
2019-06-20T18:04:42.672Z,23.10
2019-06-20T18:07:09.444Z,23.13
2019-06-20T18:09:36.395Z,23.18
2019-06-20T18:12:03.708Z,23.21
2019-06-20T18:14:33.909Z,23.21
2019-06-20T18:16:59.321Z,23.17
2019-06-20T18:19:26.327Z,22.76
2019-06-20T18:21:53.626Z,22.59
2019-06-20T18:24:20.239Z,22.43
2019-06-20T18:26:47.118Z,22.25
2019-06-20T18:29:14.163Z,22.14
2019-06-20T18:31:42.422Z,22.11
2019-06-20T18:34:09.942Z,22.08
2019-06-20T18:36:36.737Z,22.10
2019-06-20T18:39:08.243Z,22.00
2019-06-20T18:41:35.273Z,21.92
2019-06-20T18:44:02.554Z,21.94
2019-06-20T18:46:30.128Z,21.91
2019-06-20T18:48:57.888Z,21.93
2019-06-20T18:51:25.168Z,21.91
2019-06-20T18:53:52.570Z,21.77
2019-06-20T18:56:19.512Z,21.67
2019-06-20T18:58:46.554Z,21.55
2019-06-20T19:01:13.380Z,21.48
2019-06-20T19:03:40.877Z,21.41
2019-06-20T19:06:08.170Z,21.33
2019-06-20T19:08:34.989Z,21.22
2019-06-20T19:11:02.737Z,21.18
2019-06-20T19:13:30.410Z,21.18
2019-06-20T19:15:57.559Z,21.16
2019-06-20T19:18:25.014Z,21.09
2019-06-20T19:20:51.919Z,21.06
2019-06-20T19:23:19.448Z,21.06
2019-06-20T19:25:46.924Z,21.10
2019-06-20T19:28:13.717Z,21.14
2019-06-20T19:30:46.691Z,21.19
2019-06-20T19:33:14.741Z,21.22
2019-06-20T19:35:41.611Z,21.22
2019-06-20T19:38:08.762Z,21.18
2019-06-20T19:40:39.251Z,21.15
2019-06-20T19:43:06.901Z,21.12
2019-06-20T19:45:33.501Z,21.08
2019-06-20T19:48:00.432Z,21.06
2019-06-20T19:50:28.309Z,21.03
2019-06-20T19:52:55.771Z,20.99
2019-06-20T19:55:22.750Z,20.94
2019-06-20T19:57:50.330Z,20.90
2019-06-20T20:00:17.590Z,20.84
2019-06-20T20:02:44.541Z,20.80
2019-06-20T20:05:19.004Z,20.78
2019-06-20T20:07:42.128Z,20.73
2019-06-20T20:10:10.006Z,20.68
2019-06-20T20:12:37.464Z,20.60
2019-06-20T20:15:07.669Z,20.52
2019-06-20T20:17:34.394Z,20.48
2019-06-20T20:20:01.561Z,20.42
2019-06-20T20:22:29.177Z,20.38
2019-06-20T20:24:56.332Z,20.35
2019-06-20T20:27:23.551Z,20.29
2019-06-20T20:29:50.965Z,20.23
2019-06-20T20:32:18.617Z,20.20
2019-06-20T20:34:45.798Z,20.14
2019-06-20T20:37:12.677Z,20.09
2019-06-20T20:39:40.492Z,20.04
2019-06-20T20:42:07.410Z,19.99
2019-06-20T20:44:34.245Z,19.94
2019-06-20T20:47:01.270Z,19.91
2019-06-20T20:49:27.935Z,19.84
2019-06-20T20:51:54.731Z,19.78
2019-06-20T20:54:22.245Z,19.71
2019-06-20T20:56:49.631Z,18.41
2019-06-20T20:59:17.462Z,19.64
2019-06-20T21:01:44.494Z,19.57
2019-06-20T21:04:11.606Z,19.51
2019-06-20T21:06:38.734Z,19.45
2019-06-20T21:09:06.576Z,19.39
2019-06-20T21:11:34.248Z,19.36
2019-06-20T21:14:02.121Z,19.32
2019-06-20T21:16:29.518Z,19.25
2019-06-20T21:18:57.395Z,19.21
2019-06-20T21:21:24.974Z,19.17
2019-06-20T21:23:51.800Z,19.15
2019-06-20T21:26:19.184Z,19.12
2019-06-20T21:28:46.994Z,19.10
2019-06-20T21:31:14.347Z,19.07
2019-06-20T21:33:41.179Z,17.74
2019-06-20T21:36:09.397Z,18.97
2019-06-20T21:38:37.007Z,18.93
2019-06-20T21:41:03.963Z,18.90
2019-06-20T21:43:30.656Z,18.85
2019-06-20T21:45:57.686Z,18.76
2019-06-20T21:48:24.412Z,18.66
2019-06-20T21:50:51.141Z,18.55
2019-06-20T21:53:18.674Z,18.46
2019-06-20T21:55:46.791Z,18.41
2019-06-20T21:58:13.608Z,18.40
2019-06-20T22:00:45.191Z,18.37
2019-06-20T22:03:12.472Z,18.35
2019-06-20T22:05:39.341Z,18.32
2019-06-20T22:08:06.271Z,18.30
2019-06-20T22:10:34.517Z,18.28
2019-06-20T22:13:01.142Z,18.24
2019-06-20T22:15:28.462Z,18.19
2019-06-20T22:17:55.705Z,18.17
2019-06-20T22:20:22.746Z,18.15
2019-06-20T22:22:49.574Z,18.15
2019-06-20T22:25:17.322Z,18.12
2019-06-20T22:27:44.717Z,18.09
2019-06-20T22:30:12.451Z,18.07
2019-06-20T22:32:40.121Z,18.07
2019-06-20T22:35:08.023Z,18.04
2019-06-20T22:37:34.971Z,18.01
2019-06-20T22:40:04.782Z,17.97
2019-06-20T22:42:32.126Z,17.94
2019-06-20T22:44:59.759Z,17.92
2019-06-20T22:47:27.539Z,17.91
2019-06-20T22:49:54.354Z,17.49
2019-06-20T22:52:21.726Z,17.84
2019-06-20T22:54:49.407Z,17.79
2019-06-20T22:57:17.228Z,17.77
2019-06-20T22:59:46.576Z,17.72
2019-06-20T23:02:13.523Z,17.63
2019-06-20T23:04:40.754Z,17.59
2019-06-20T23:07:08.312Z,17.56
2019-06-20T23:09:36.192Z,17.54
2019-06-20T23:12:04.036Z,17.54
2019-06-20T23:14:31.972Z,17.54
2019-06-20T23:16:58.683Z,17.50
2019-06-20T23:19:26.512Z,17.48
2019-06-20T23:21:53.946Z,17.44
2019-06-20T23:24:21.932Z,17.41
2019-06-20T23:26:49.824Z,17.38
2019-06-20T23:29:23.535Z,17.37
2019-06-20T23:31:53.280Z,17.35
2019-06-20T23:34:21.160Z,17.34
2019-06-20T23:36:48.679Z,17.31
2019-06-20T23:39:17.126Z,17.31
2019-06-20T23:41:44.642Z,17.29
2019-06-20T23:44:12.452Z,17.29
2019-06-20T23:46:39.996Z,16.99
2019-06-20T23:49:07.737Z,17.26
2019-06-20T23:51:45.717Z,17.24
2019-06-20T23:54:13.737Z,17.23
2019-06-20T23:56:40.952Z,17.22
2019-06-20T23:59:08.698Z,17.23
